USCGC Eagle — NRCB — position and weather

sailwx.info

Track history (hours):
 
Tides and Currents Weather Stations Pressure Air Temp Water Temp Dewpoint Dewpoint Depression Visibility Wind Speed Wind Dir Waves Ship Positions

USCGC Eagle (United States)

Training ship of US Coast Guard Academy, and only square-rigger in active service in the US armed services. Ex German ship Horst Wessel.

Ship's website: http://www.cga.edu/eagle/

Last reported at 2019-Oct-08 13:56 UTC. Time now 2019-Oct-23 00:44 UTC.
Position N 41°21' W 072°05'.
Warning: this ship's position is 14 days out of date.

Type: Sailing vessel. MMSI: 303990000.

Date/timePositionNaut miles runAvg speedWind from/ knotsBaromVisibWave heightAir tempDewpointWater temp
2019-Oct-08 13:56N 41°21' W 072°05'0 0.2
2019-Oct-08 13:30N 41°21' W 072°05'1 1.1
2019-Oct-08 13:00N 41°20' W 072°05'2 5.0
2019-Oct-08 12:30N 41°18' W 072°05'2 3.9
2019-Oct-08 12:01N 41°16' W 072°04'3 6.1
2019-Oct-08 11:30N 41°15' W 072°08'3 0.6
2019-Oct-08 06:40N 41°17' W 072°11'0 0.1
2019-Oct-08 06:24N 41°17' W 072°11'0 0.0
2019-Oct-08 06:00N 41°17' W 072°11'0 0.0
2019-Oct-08 05:29N 41°17' W 072°11'0 0.0
2019-Oct-08 05:00N 41°17' W 072°11'0 0.0
2019-Oct-08 04:30N 41°17' W 072°11'0 0.1
2019-Oct-08 03:57N 41°17' W 072°11'0 0.0
2019-Oct-08 01:26N 41°17' W 072°11'0 0.0
2019-Oct-08 00:58N 41°17' W 072°11'0 0.1
2019-Oct-08 00:30N 41°17' W 072°11'3 2.4
2019-Oct-07 23:26N 41°16' W 072°14'6 1.4
2019-Oct-07 18:54N 41°16' W 072°05'3 7.7
2019-Oct-07 18:30N 41°19' W 072°05'2 4.5
2019-Oct-07 17:58N 41°21' W 072°05'0 0.1
2019-Oct-07 17:30N 41°21' W 072°05'0 0.0
2019-Oct-07 17:00N 41°21' W 072°05'  
2019-Oct-03 19:17N 41°21' W 072°05'0 0.0
2019-Oct-03 18:58N 41°21' W 072°05'1 2.7
2019-Oct-03 18:30N 41°20' W 072°05'3 5.5
2019-Oct-03 18:00N 41°17' W 072°04'0 0.1
2019-Oct-03 17:30N 41°17' W 072°04'0 0.0
2019-Oct-03 17:00N 41°17' W 072°04'0 0.0
2019-Oct-03 16:29N 41°17' W 072°04'0 0.3
2019-Oct-03 16:00N 41°17' W 072°04'3 5.8
2019-Oct-03 15:30N 41°14' W 072°03'8 3.1
2019-Oct-03 12:50N 41°09' W 071°55'  
2019-Oct-01 01:45N 38°46' W 074°55'2 8.0
2019-Oct-01 01:30N 38°46' W 074°57'  
Track history (hours):
 
Tides and Currents Weather Stations Pressure Air Temp Water Temp Dewpoint Dewpoint Depression Visibility Wind Speed Wind Dir Waves Ship Positions

USCGC Eagle (United States)

Training ship of US Coast Guard Academy, and only square-rigger in active service in the US armed services. Ex German ship Horst Wessel.

Ship's website: http://www.cga.edu/eagle/

Last reported at 2019-Oct-08 13:56 UTC. Time now 2019-Oct-23 00:44 UTC.
Position N 41°21' W 072°05'.
Warning: this ship's position is 14 days out of date.

Type: Sailing vessel. MMSI: 303990000.

Date/timePositionNaut miles runAvg speedWind from/ knotsBaromVisibWave heightAir tempDewpointWater temp
2019-Oct-08 13:56N 41°21' W 072°05'0 0.2
2019-Oct-08 13:30N 41°21' W 072°05'1 1.1
2019-Oct-08 13:00N 41°20' W 072°05'2 5.0
2019-Oct-08 12:30N 41°18' W 072°05'2 3.9
2019-Oct-08 12:01N 41°16' W 072°04'3 6.1
2019-Oct-08 11:30N 41°15' W 072°08'3 0.6
2019-Oct-08 06:40N 41°17' W 072°11'0 0.1
2019-Oct-08 06:24N 41°17' W 072°11'0 0.0
2019-Oct-08 06:00N 41°17' W 072°11'0 0.0
2019-Oct-08 05:29N 41°17' W 072°11'0 0.0
2019-Oct-08 05:00N 41°17' W 072°11'0 0.0
2019-Oct-08 04:30N 41°17' W 072°11'0 0.1
2019-Oct-08 03:57N 41°17' W 072°11'0 0.0
2019-Oct-08 01:26N 41°17' W 072°11'0 0.0
2019-Oct-08 00:58N 41°17' W 072°11'0 0.1
2019-Oct-08 00:30N 41°17' W 072°11'3 2.4
2019-Oct-07 23:26N 41°16' W 072°14'6 1.4
2019-Oct-07 18:54N 41°16' W 072°05'3 7.7
2019-Oct-07 18:30N 41°19' W 072°05'2 4.5
2019-Oct-07 17:58N 41°21' W 072°05'0 0.1
2019-Oct-07 17:30N 41°21' W 072°05'0 0.0
2019-Oct-07 17:00N 41°21' W 072°05'  
2019-Oct-03 19:17N 41°21' W 072°05'0 0.0
2019-Oct-03 18:58N 41°21' W 072°05'1 2.7
2019-Oct-03 18:30N 41°20' W 072°05'3 5.5
2019-Oct-03 18:00N 41°17' W 072°04'0 0.1
2019-Oct-03 17:30N 41°17' W 072°04'0 0.0
2019-Oct-03 17:00N 41°17' W 072°04'0 0.0
2019-Oct-03 16:29N 41°17' W 072°04'0 0.3
2019-Oct-03 16:00N 41°17' W 072°04'3 5.8
2019-Oct-03 15:30N 41°14' W 072°03'8 3.1
2019-Oct-03 12:50N 41°09' W 071°55'  
2019-Oct-01 01:45N 38°46' W 074°55'2 8.0
2019-Oct-01 01:30N 38°46' W 074°57'  

Dump ship's entire track history